createdAt,value
2022-12-15T00:02:05.710Z,-4.62
2022-12-15T00:04:50.840Z,-4.69
2022-12-15T00:07:35.776Z,-4.75
2022-12-15T00:10:20.607Z,-4.79
2022-12-15T00:13:05.483Z,-4.75
2022-12-15T00:15:50.253Z,-4.75
2022-12-15T00:18:35.177Z,-4.70
2022-12-15T00:21:19.959Z,-4.74
2022-12-15T00:24:04.985Z,-4.72
2022-12-15T00:26:50.258Z,-4.75
2022-12-15T00:29:35.116Z,-4.76
2022-12-15T00:32:20.031Z,-4.77
2022-12-15T00:35:04.869Z,-4.71
2022-12-15T00:37:49.885Z,-4.68
2022-12-15T00:40:17.482Z,-4.69
2022-12-15T00:42:45.020Z,-4.70
2022-12-15T00:45:17.265Z,-4.67
2022-12-15T00:47:43.774Z,-4.68
2022-12-15T00:50:30.769Z,-4.69
2022-12-15T00:53:16.051Z,-4.72
2022-12-15T00:56:01.062Z,-4.77
2022-12-15T00:58:46.472Z,-4.81
2022-12-15T01:01:31.585Z,-4.78
2022-12-15T01:04:16.538Z,-4.76
2022-12-15T01:07:01.693Z,-4.72
2022-12-15T01:09:46.792Z,-4.71
2022-12-15T01:12:31.757Z,-4.68
2022-12-15T01:15:16.632Z,-4.71
2022-12-15T01:18:01.583Z,-4.71
2022-12-15T01:20:32.668Z,-4.82
2022-12-15T01:23:00.252Z,-4.77
2022-12-15T01:25:29.053Z,-4.84
2022-12-15T01:27:56.675Z,-4.90
2022-12-15T01:30:26.795Z,-4.88
2022-12-15T01:32:54.647Z,-4.86
2022-12-15T01:35:22.447Z,-4.83
2022-12-15T01:37:50.370Z,-4.89
2022-12-15T01:40:37.662Z,-4.81
2022-12-15T01:43:10.610Z,-4.81
2022-12-15T01:45:58.857Z,-4.83
2022-12-15T01:48:35.238Z,-4.85
2022-12-15T01:51:11.441Z,-4.87
2022-12-15T01:53:44.454Z,-4.88
2022-12-15T01:56:12.948Z,-4.97
2022-12-15T01:58:44.522Z,-4.99
2022-12-15T02:01:12.407Z,-5.06
2022-12-15T02:03:40.776Z,-5.06
2022-12-15T02:06:09.677Z,-5.01
2022-12-15T02:08:38.501Z,-5.03
2022-12-15T02:11:05.986Z,-4.97
2022-12-15T02:13:57.055Z,-4.95
2022-12-15T02:16:35.003Z,-4.90
2022-12-15T02:19:30.884Z,-4.97
2022-12-15T02:22:51.955Z,-4.93
2022-12-15T02:25:23.737Z,-4.98
2022-12-15T02:28:08.501Z,-5.01
2022-12-15T02:30:41.890Z,-5.00
2022-12-15T02:33:21.773Z,-5.03
2022-12-15T02:36:01.660Z,-5.05
2022-12-15T02:38:37.537Z,-4.99
2022-12-15T02:41:07.547Z,-5.01
2022-12-15T02:43:39.909Z,-4.87
2022-12-15T02:46:16.697Z,-4.80
2022-12-15T02:49:01.556Z,-4.80
2022-12-15T02:52:12.185Z,-4.82
2022-12-15T02:54:47.165Z,-4.85
2022-12-15T02:57:25.900Z,-4.84
2022-12-15T03:00:00.175Z,-4.85
2022-12-15T03:02:31.769Z,-4.87
2022-12-15T03:05:00.129Z,-4.86
2022-12-15T03:07:28.849Z,-4.92
2022-12-15T03:09:58.291Z,-5.08
2022-12-15T03:12:25.813Z,-5.03
2022-12-15T03:14:53.319Z,-5.07
2022-12-15T03:17:21.258Z,-5.07
2022-12-15T03:19:49.732Z,-5.09
2022-12-15T03:22:17.546Z,-5.12
2022-12-15T03:24:45.089Z,-5.14
2022-12-15T03:27:13.093Z,-5.11
2022-12-15T03:29:40.770Z,-5.13
2022-12-15T03:32:08.565Z,-5.22
2022-12-15T03:34:36.228Z,-5.18
2022-12-15T03:37:03.812Z,-5.21
2022-12-15T03:39:31.419Z,-5.19
2022-12-15T03:41:59.065Z,-5.14
2022-12-15T03:44:26.731Z,-5.13
2022-12-15T03:46:57.232Z,-5.13
2022-12-15T03:49:28.981Z,-5.18
2022-12-15T03:51:56.651Z,-5.09
2022-12-15T03:54:24.134Z,-5.01
2022-12-15T03:56:51.663Z,-4.92
2022-12-15T03:59:20.038Z,-4.87
2022-12-15T04:01:49.201Z,-4.81
2022-12-15T04:04:16.991Z,-4.75
2022-12-15T04:06:44.510Z,-4.73
2022-12-15T04:09:12.092Z,-4.73
2022-12-15T04:11:39.573Z,-4.71
2022-12-15T04:14:07.102Z,-4.80
2022-12-15T04:16:34.711Z,-4.75
2022-12-15T04:19:19.599Z,-4.79
2022-12-15T04:21:47.119Z,-4.89
2022-12-15T04:24:32.103Z,-4.90
2022-12-15T04:27:16.758Z,-4.87
2022-12-15T04:30:01.492Z,-4.89
2022-12-15T04:32:49.996Z,-4.88
2022-12-15T04:35:35.810Z,-4.87
2022-12-15T04:38:21.033Z,-4.90
2022-12-15T04:41:06.452Z,-4.87
2022-12-15T04:43:51.256Z,-4.88
2022-12-15T04:46:36.184Z,-4.86
2022-12-15T04:49:21.348Z,-4.86
2022-12-15T04:52:06.083Z,-4.90
2022-12-15T04:54:50.872Z,-4.92
2022-12-15T04:57:35.785Z,-5.03
2022-12-15T05:00:20.841Z,-4.97
2022-12-15T05:03:05.605Z,-4.99
2022-12-15T05:05:50.483Z,-4.93
2022-12-15T05:08:35.969Z,-4.93
2022-12-15T05:11:20.738Z,-4.97
2022-12-15T05:14:05.652Z,-5.01
2022-12-15T05:16:50.478Z,-5.05
2022-12-15T05:19:35.542Z,-5.06
2022-12-15T05:22:20.317Z,-5.03
2022-12-15T05:25:05.142Z,-5.03
2022-12-15T05:27:49.832Z,-4.93
2022-12-15T05:30:35.431Z,-4.91
2022-12-15T05:33:06.989Z,-4.93
2022-12-15T05:35:34.548Z,-4.95
2022-12-15T05:38:02.184Z,-4.97
2022-12-15T05:40:29.686Z,-4.99
2022-12-15T05:43:00.041Z,-4.99
2022-12-15T05:45:28.874Z,-5.09
2022-12-15T05:47:56.910Z,-5.10
2022-12-15T05:50:24.737Z,-5.08
2022-12-15T05:52:52.286Z,-5.08
2022-12-15T05:55:20.580Z,-5.09
2022-12-15T05:57:55.313Z,-5.11
2022-12-15T06:00:22.962Z,-5.05
2022-12-15T06:02:50.606Z,-5.00
2022-12-15T06:05:18.779Z,-4.96
2022-12-15T06:07:46.450Z,-4.99
2022-12-15T06:10:13.990Z,-5.06
2022-12-15T06:12:41.618Z,-5.09
2022-12-15T06:15:09.645Z,-5.10
2022-12-15T06:17:37.273Z,-5.14
2022-12-15T06:20:05.227Z,-5.13
2022-12-15T06:22:32.768Z,-5.18
2022-12-15T06:25:00.375Z,-5.21
2022-12-15T06:27:28.003Z,-5.23
2022-12-15T06:29:55.571Z,-5.24
2022-12-15T06:32:23.200Z,-5.30
2022-12-15T06:34:50.655Z,-5.32
2022-12-15T06:37:18.184Z,-5.35
2022-12-15T06:39:46.037Z,-5.44
2022-12-15T06:42:14.611Z,-5.37
2022-12-15T06:44:42.081Z,-5.33
2022-12-15T06:47:09.642Z,-5.30
2022-12-15T06:49:37.275Z,-5.38
2022-12-15T06:52:04.853Z,-5.37
2022-12-15T06:54:32.404Z,-5.42
2022-12-15T06:56:59.904Z,-5.46
2022-12-15T06:59:27.584Z,-5.36
2022-12-15T07:01:55.294Z,-5.34
2022-12-15T07:04:23.010Z,-5.22
2022-12-15T07:06:50.615Z,-5.23
2022-12-15T07:09:18.388Z,-5.28
2022-12-15T07:11:49.314Z,-5.31
2022-12-15T07:14:16.897Z,-5.29
2022-12-15T07:16:45.607Z,-5.28
2022-12-15T07:19:13.857Z,-5.27
2022-12-15T07:21:42.408Z,-5.24
2022-12-15T07:24:12.928Z,-5.24
2022-12-15T07:26:41.807Z,-5.11
2022-12-15T07:29:09.350Z,-5.14
2022-12-15T07:31:36.953Z,-5.09
2022-12-15T07:34:04.650Z,-5.01
2022-12-15T07:36:32.401Z,-5.11
2022-12-15T07:39:01.894Z,-5.10
2022-12-15T07:41:30.205Z,-5.06
2022-12-15T07:43:59.056Z,-5.06
2022-12-15T07:46:27.392Z,-4.99
2022-12-15T07:48:54.978Z,-5.02
2022-12-15T07:51:23.267Z,-5.19
2022-12-15T07:53:51.806Z,-5.10
2022-12-15T07:56:21.463Z,-5.08
2022-12-15T07:58:49.502Z,-5.15
2022-12-15T08:01:17.918Z,-5.22
2022-12-15T08:03:46.151Z,-5.16
2022-12-15T08:06:15.841Z,-5.16
2022-12-15T08:08:49.973Z,-5.21
2022-12-15T08:11:18.556Z,-5.55
2022-12-15T08:14:03.668Z,-5.04
2022-12-15T08:16:34.666Z,-5.01
2022-12-15T08:19:02.868Z,-5.07
2022-12-15T08:21:31.328Z,-4.96
2022-12-15T08:24:00.760Z,-4.98
2022-12-15T08:26:31.286Z,-4.98
2022-12-15T08:29:48.818Z,-4.94
2022-12-15T08:31:53.052Z,-4.90
2022-12-15T08:34:21.566Z,-4.85
2022-12-15T08:36:49.142Z,-4.77
2022-12-15T08:39:16.964Z,-4.74
2022-12-15T08:41:44.544Z,-4.69
2022-12-15T08:44:12.081Z,-4.63
2022-12-15T08:46:39.883Z,-4.64
2022-12-15T08:49:08.677Z,-4.46
2022-12-15T08:51:36.306Z,-4.40
2022-12-15T08:54:03.981Z,-4.36
2022-12-15T08:56:31.640Z,-4.33
2022-12-15T08:59:02.083Z,-4.26
2022-12-15T09:01:32.269Z,-4.25
2022-12-15T09:04:01.414Z,-4.23
2022-12-15T09:06:34.410Z,-4.13
2022-12-15T09:09:04.977Z,-4.02
2022-12-15T09:11:33.412Z,-3.91
2022-12-15T09:14:01.404Z,-3.84
2022-12-15T09:16:29.182Z,-3.64
2022-12-15T09:18:59.157Z,-3.57
2022-12-15T09:21:29.171Z,-3.47
2022-12-15T09:24:01.990Z,-3.36
2022-12-15T09:26:32.137Z,-3.31
2022-12-15T09:29:00.181Z,-3.25
2022-12-15T09:31:30.676Z,-3.19
2022-12-15T09:34:00.809Z,-3.06
2022-12-15T09:36:30.320Z,-2.97
2022-12-15T09:38:57.937Z,-2.86
2022-12-15T09:41:31.435Z,-2.87
2022-12-15T09:44:04.098Z,-2.60
2022-12-15T09:47:16.254Z,-2.53
2022-12-15T09:49:59.148Z,-2.45
2022-12-15T09:52:30.048Z,-2.22
2022-12-15T09:54:59.489Z,-2.05
2022-12-15T09:57:37.940Z,-1.85
2022-12-15T10:00:07.361Z,-1.74
2022-12-15T10:02:51.034Z,-1.71
2022-12-15T10:06:06.170Z,-1.53
2022-12-15T10:08:39.255Z,-1.45
2022-12-15T10:11:29.454Z,-1.28
2022-12-15T10:14:12.238Z,-1.05
2022-12-15T10:16:52.713Z,-0.88
2022-12-15T10:19:32.342Z,-0.81
2022-12-15T10:22:00.108Z,-0.76
2022-12-15T10:25:07.913Z,-0.81
2022-12-15T10:27:27.048Z,-0.80
2022-12-15T10:30:01.107Z,-0.59
2022-12-15T10:32:51.445Z,-0.42
2022-12-15T10:35:23.778Z,-0.23
2022-12-15T10:37:51.444Z,-0.17
2022-12-15T10:40:20.955Z,-0.01
2022-12-15T10:42:51.332Z,0.08
2022-12-15T10:45:40.252Z,0.20
2022-12-15T10:48:21.399Z,0.30
2022-12-15T10:50:50.153Z,0.22
2022-12-15T10:53:40.865Z,0.24
2022-12-15T10:56:09.256Z,0.20
2022-12-15T10:58:50.261Z,0.23
2022-12-15T11:01:21.377Z,0.18
2022-12-15T11:03:52.752Z,0.14
2022-12-15T11:06:27.156Z,0.04
2022-12-15T11:08:58.021Z,-0.13
2022-12-15T11:11:47.337Z,-0.11
2022-12-15T11:14:24.549Z,-0.15
2022-12-15T11:16:57.866Z,-0.17
2022-12-15T11:19:28.512Z,-0.15
2022-12-15T11:22:01.065Z,-0.07
2022-12-15T11:24:41.394Z,0.18
2022-12-15T11:27:20.743Z,0.33
2022-12-15T11:30:01.081Z,0.52
2022-12-15T11:32:33.593Z,0.76
2022-12-15T11:35:01.070Z,1.03
2022-12-15T11:37:46.430Z,1.20
2022-12-15T11:40:36.344Z,1.27
2022-12-15T11:43:18.901Z,1.27
2022-12-15T11:45:46.357Z,1.11
2022-12-15T11:48:21.180Z,1.00
2022-12-15T11:50:54.389Z,0.80
2022-12-15T11:53:46.941Z,0.87
2022-12-15T11:56:30.976Z,0.97
2022-12-15T11:59:19.156Z,0.89
2022-12-15T12:02:08.090Z,0.89
2022-12-15T12:04:54.049Z,0.87
2022-12-15T12:07:42.661Z,0.94
2022-12-15T12:10:10.289Z,1.05
2022-12-15T12:12:50.804Z,1.16
2022-12-15T12:15:32.993Z,1.35
2022-12-15T12:18:10.792Z,1.61
2022-12-15T12:20:44.471Z,1.57
2022-12-15T12:23:21.453Z,1.49
2022-12-15T12:26:04.555Z,1.42
2022-12-15T12:28:43.989Z,1.39
2022-12-15T12:31:39.554Z,1.46
2022-12-15T12:34:14.938Z,1.51
2022-12-15T12:36:45.810Z,1.61
2022-12-15T12:39:24.317Z,1.61
2022-12-15T12:42:01.982Z,1.82
2022-12-15T12:44:38.719Z,1.95
2022-12-15T12:47:21.316Z,1.96
2022-12-15T12:49:51.401Z,2.00
2022-12-15T12:52:32.319Z,1.98
2022-12-15T12:55:05.901Z,1.93
2022-12-15T12:57:41.570Z,1.84
2022-12-15T13:00:09.042Z,1.83
2022-12-15T13:02:38.116Z,1.79
2022-12-15T13:05:25.999Z,1.72
2022-12-15T13:08:07.286Z,1.69
2022-12-15T13:10:40.766Z,1.62
2022-12-15T13:13:17.518Z,1.59
2022-12-15T13:15:51.259Z,1.61
2022-12-15T13:18:24.724Z,1.66
2022-12-15T13:20:57.166Z,1.72
2022-12-15T13:23:24.576Z,1.80
2022-12-15T13:26:13.411Z,1.74
2022-12-15T13:28:45.906Z,1.74
2022-12-15T13:31:20.738Z,1.65
2022-12-15T13:33:51.576Z,1.58
2022-12-15T13:36:38.431Z,1.41
2022-12-15T13:39:26.446Z,1.56
2022-12-15T13:44:48.592Z,1.52
2022-12-15T13:47:17.757Z,1.52
2022-12-15T13:50:03.603Z,1.53
2022-12-15T13:55:39.257Z,1.59
2022-12-15T13:58:17.434Z,1.62
2022-12-15T14:00:59.028Z,1.62
2022-12-15T14:03:26.882Z,1.65
2022-12-15T14:05:58.562Z,1.62
2022-12-15T14:08:30.102Z,1.66
2022-12-15T14:13:54.311Z,1.80
2022-12-15T14:16:24.516Z,1.78
2022-12-15T14:19:15.949Z,1.67
2022-12-15T14:21:55.517Z,1.64
2022-12-15T14:24:39.622Z,1.60
2022-12-15T14:27:07.939Z,1.54
2022-12-15T14:29:35.612Z,1.50
2022-12-15T14:32:03.706Z,1.46
2022-12-15T14:34:37.103Z,1.41
2022-12-15T14:37:09.969Z,1.31
2022-12-15T14:39:43.497Z,1.25
2022-12-15T14:42:19.777Z,1.23
2022-12-15T14:44:52.053Z,1.12
2022-12-15T14:47:28.503Z,0.93
2022-12-15T14:49:58.677Z,1.07
2022-12-15T14:52:32.133Z,1.11
2022-12-15T14:55:02.344Z,1.08
2022-12-15T14:57:39.106Z,0.98
2022-12-15T15:00:49.823Z,0.96
2022-12-15T15:06:01.476Z,0.83
2022-12-15T15:08:32.621Z,0.76
2022-12-15T15:11:20.253Z,0.72
2022-12-15T15:13:48.413Z,0.58
2022-12-15T15:16:18.853Z,0.55
2022-12-15T15:18:52.226Z,0.45
2022-12-15T15:21:23.864Z,0.14
2022-12-15T15:24:21.773Z,0.30
2022-12-15T15:26:49.499Z,0.24
2022-12-15T15:29:40.979Z,0.16
2022-12-15T15:32:17.677Z,0.15
2022-12-15T15:34:47.035Z,0.10
2022-12-15T15:37:22.244Z,0.05
2022-12-15T15:39:51.548Z,-0.05
2022-12-15T15:42:19.170Z,-0.15
2022-12-15T15:44:46.700Z,-0.18
2022-12-15T15:47:32.135Z,-0.24
2022-12-15T15:50:00.801Z,-0.31
2022-12-15T15:52:32.002Z,-0.34
2022-12-15T15:55:00.415Z,-0.37
2022-12-15T15:57:27.930Z,-0.36
2022-12-15T15:59:55.578Z,-0.40
2022-12-15T16:02:23.488Z,-0.38
2022-12-15T16:04:51.218Z,-0.38
2022-12-15T16:07:26.638Z,-0.41
2022-12-15T16:09:55.181Z,-0.43
2022-12-15T16:12:50.823Z,-0.48
2022-12-15T16:15:21.675Z,-0.48
2022-12-15T16:17:49.326Z,-0.52
2022-12-15T16:20:19.241Z,-0.56
2022-12-15T16:22:50.948Z,-0.64
2022-12-15T16:25:28.423Z,-0.61
2022-12-15T16:27:55.952Z,-0.68
2022-12-15T16:30:26.072Z,-0.69
2022-12-15T16:32:54.668Z,-0.68
2022-12-15T16:35:27.235Z,-0.71
2022-12-15T16:37:54.796Z,-0.77
2022-12-15T16:40:28.256Z,-0.89
2022-12-15T16:43:01.299Z,-0.86
2022-12-15T16:45:31.856Z,-0.92
2022-12-15T16:47:59.683Z,-0.95
2022-12-15T16:50:37.708Z,-1.01
2022-12-15T16:53:06.025Z,-1.03
2022-12-15T16:55:39.913Z,-1.01
2022-12-15T16:58:08.085Z,-1.01
2022-12-15T17:00:36.597Z,-1.00
2022-12-15T17:03:04.780Z,-0.94
2022-12-15T17:05:34.667Z,-0.93
2022-12-15T17:08:05.523Z,-0.95
2022-12-15T17:10:34.282Z,-0.94
2022-12-15T17:13:08.438Z,-0.81
2022-12-15T17:15:39.842Z,-0.71
2022-12-15T17:18:15.020Z,-0.67
2022-12-15T17:20:43.753Z,-0.84
2022-12-15T17:23:18.470Z,-0.58
2022-12-15T17:28:37.675Z,-0.64
2022-12-15T17:31:05.332Z,-0.67
2022-12-15T17:33:35.814Z,-0.71
2022-12-15T17:36:09.500Z,-0.71
2022-12-15T17:38:37.068Z,-0.75
2022-12-15T17:41:04.652Z,-0.75
2022-12-15T17:43:35.906Z,-0.71
2022-12-15T17:46:03.983Z,-0.66
2022-12-15T17:48:31.630Z,-0.64
2022-12-15T17:50:59.922Z,-0.73
2022-12-15T17:53:27.610Z,-0.65
2022-12-15T17:55:55.335Z,-0.68
2022-12-15T17:58:25.796Z,-0.58
2022-12-15T18:00:55.746Z,-0.59
2022-12-15T18:03:24.907Z,-0.56
2022-12-15T18:05:54.214Z,-0.53
2022-12-15T18:08:25.364Z,-0.54
2022-12-15T18:10:55.661Z,-0.57
2022-12-15T18:13:30.351Z,-0.52
2022-12-15T18:16:02.766Z,-0.55
2022-12-15T18:18:30.594Z,-0.47
2022-12-15T18:21:02.520Z,-0.45
2022-12-15T18:23:32.182Z,-0.47
2022-12-15T18:26:03.175Z,-0.48
2022-12-15T18:28:34.480Z,-0.51
2022-12-15T18:31:14.753Z,-0.53
2022-12-15T18:33:42.309Z,-0.60
2022-12-15T18:36:10.477Z,-0.67
2022-12-15T18:38:38.340Z,-0.76
2022-12-15T18:41:06.946Z,-0.81
2022-12-15T18:43:36.069Z,-0.82
2022-12-15T18:46:03.818Z,-0.81
2022-12-15T18:48:34.960Z,-0.83
2022-12-15T18:51:03.680Z,-0.91
2022-12-15T18:53:35.342Z,-0.94
2022-12-15T18:56:06.044Z,-0.89
2022-12-15T18:58:39.401Z,-0.88
2022-12-15T19:01:08.377Z,-0.88
2022-12-15T19:03:38.233Z,-0.94
2022-12-15T19:06:23.949Z,-0.93
2022-12-15T19:08:53.358Z,-0.95
2022-12-15T19:11:30.954Z,-0.99
2022-12-15T19:14:04.002Z,-1.02
2022-12-15T19:16:51.655Z,-1.06
2022-12-15T19:19:36.851Z,-1.11
2022-12-15T19:22:29.983Z,-1.15
2022-12-15T19:24:58.537Z,-1.17
2022-12-15T19:27:27.137Z,-1.14
2022-12-15T19:29:55.895Z,-1.19
2022-12-15T19:32:24.150Z,-1.19
2022-12-15T19:34:51.705Z,-1.20
2022-12-15T19:37:31.548Z,-1.20
2022-12-15T19:40:01.813Z,-1.20
2022-12-15T19:42:37.731Z,-1.21
2022-12-15T19:45:32.760Z,-1.21
2022-12-15T19:48:00.992Z,-1.27
2022-12-15T19:50:36.600Z,-1.25
2022-12-15T19:53:10.835Z,-1.26
2022-12-15T19:55:38.490Z,-1.29
2022-12-15T19:58:25.257Z,-1.33
2022-12-15T20:00:55.801Z,-1.34
2022-12-15T20:03:23.647Z,-1.34
2022-12-15T20:05:52.957Z,-1.33
2022-12-15T20:08:26.541Z,-1.33
2022-12-15T20:10:55.689Z,-1.30
2022-12-15T20:13:26.427Z,-1.26
2022-12-15T20:15:55.201Z,-1.29
2022-12-15T20:18:22.883Z,-1.28
2022-12-15T20:20:51.073Z,-1.31
2022-12-15T20:23:20.451Z,-1.21
2022-12-15T20:25:50.781Z,-1.19
2022-12-15T20:28:23.292Z,-1.19
2022-12-15T20:30:51.424Z,-1.16
2022-12-15T20:33:19.344Z,-1.13
2022-12-15T20:35:49.391Z,-1.11
2022-12-15T20:38:25.153Z,-1.07
2022-12-15T20:40:54.018Z,-1.02
2022-12-15T20:43:23.400Z,-1.08
2022-12-15T20:45:59.060Z,-1.08
2022-12-15T20:48:26.848Z,-1.09
2022-12-15T20:50:54.462Z,-1.05
2022-12-15T20:53:25.280Z,-1.04
2022-12-15T20:55:55.034Z,-1.06
2022-12-15T20:58:27.010Z,-1.04
2022-12-15T21:00:55.894Z,-1.02
2022-12-15T21:03:28.355Z,-1.02
2022-12-15T21:05:56.752Z,-1.00
2022-12-15T21:08:28.473Z,-1.03
2022-12-15T21:11:00.868Z,-1.06
2022-12-15T21:13:31.308Z,-1.08
2022-12-15T21:15:59.145Z,-1.10
2022-12-15T21:19:03.911Z,-1.14
2022-12-15T21:21:26.169Z,-1.14
2022-12-15T21:23:54.642Z,-1.18
2022-12-15T21:26:23.933Z,-1.10
2022-12-15T21:28:55.565Z,-1.10
2022-12-15T21:31:23.675Z,-1.05
2022-12-15T21:33:51.444Z,-1.05
2022-12-15T21:36:21.334Z,-1.03
2022-12-15T21:38:51.906Z,-1.01
2022-12-15T21:41:22.065Z,-0.97
2022-12-15T21:43:50.815Z,-1.03
2022-12-15T21:46:26.079Z,-0.98
2022-12-15T21:49:13.940Z,-1.05
2022-12-15T21:51:44.783Z,-1.01
2022-12-15T21:54:19.392Z,-1.00
2022-12-15T21:56:48.539Z,-0.93
2022-12-15T21:59:21.659Z,-0.88
2022-12-15T22:01:49.870Z,-0.84
2022-12-15T22:04:22.128Z,-0.77
2022-12-15T22:06:50.321Z,-0.69
2022-12-15T22:09:18.968Z,-0.67
2022-12-15T22:11:49.548Z,-0.63
2022-12-15T22:14:27.233Z,-0.64
2022-12-15T22:16:55.456Z,-0.61
2022-12-15T22:19:23.351Z,-0.63
2022-12-15T22:21:52.094Z,-0.66
2022-12-15T22:24:19.833Z,-0.68
2022-12-15T22:26:49.200Z,-0.71
2022-12-15T22:29:22.496Z,-0.72
2022-12-15T22:31:51.786Z,-0.70
2022-12-15T22:34:24.606Z,-0.69
2022-12-15T22:36:52.593Z,-0.71
2022-12-15T22:39:22.485Z,-0.66
2022-12-15T22:41:53.567Z,-0.83
2022-12-15T22:44:28.429Z,-0.61
2022-12-15T22:46:58.227Z,-0.56
2022-12-15T22:49:31.195Z,-0.56
2022-12-15T22:51:59.192Z,-0.54
2022-12-15T22:54:29.353Z,-0.51
2022-12-15T22:57:05.394Z,-0.48
2022-12-15T22:59:41.154Z,-0.43
2022-12-15T23:02:10.081Z,-0.45
2022-12-15T23:04:37.813Z,-0.44
2022-12-15T23:07:10.044Z,-0.42
2022-12-15T23:09:37.810Z,-0.41
2022-12-15T23:12:04.666Z,-0.52
2022-12-15T23:14:54.742Z,-0.53
2022-12-15T23:17:22.445Z,-0.63
2022-12-15T23:19:49.960Z,-0.67
2022-12-15T23:22:18.005Z,-0.73
2022-12-15T23:24:45.829Z,-1.08
2022-12-15T23:27:13.580Z,-0.92
2022-12-15T23:29:41.123Z,-0.96
2022-12-15T23:32:08.653Z,-0.99
2022-12-15T23:34:36.177Z,-1.06
2022-12-15T23:37:03.705Z,-1.12
2022-12-15T23:39:31.592Z,-1.20
2022-12-15T23:41:59.070Z,-1.28
2022-12-15T23:44:26.609Z,-1.32
2022-12-15T23:46:54.222Z,-1.37
2022-12-15T23:49:21.805Z,-1.37
2022-12-15T23:51:49.572Z,-1.37
2022-12-15T23:54:17.089Z,-1.36
2022-12-15T23:56:44.673Z,-1.30
2022-12-15T23:59:12.233Z,-1.26
